Time;durP1;ratioP1;P1;durP2;ratioP2;P2;SDS_P1;SDS_P2;PMS_P1;PMS_P2;Temp;Humidity;BMP_temperature;BMP_pressure;BME280_temperature;BME280_humidity;BME280_pressure;Samples;Min_cycle;Max_cycle;Signal;HPM_P1;HPM_P2
2021/04/07 00:00:38;;;;;;;41.25;34.30;;;;;;;10.24;66.76;98156.88;5073352;28;20020;-78
2021/04/07 00:03:05;;;;;;;40.28;31.80;;;;;;;10.17;65.89;98155.06;5074456;28;20029;-78
2021/04/07 00:05:34;;;;;;;36.40;28.48;;;;;;;10.11;66.56;98160.34;5074453;28;20395;-78
2021/04/07 00:08:00;;;;;;;37.70;29.85;;;;;;;10.10;66.20;98158.75;5074375;28;20028;-78
2021/04/07 00:10:36;;;;;;;40.35;30.38;;;;;;;10.05;66.23;98161.19;5073131;28;20162;-78
2021/04/07 00:13:02;;;;;;;43.60;32.53;;;;;;;10.03;66.30;98156.13;5074269;28;20082;-80
2021/04/07 00:15:29;;;;;;;39.38;29.42;;;;;;;10.01;66.52;98157.34;5064954;28;20040;-78
2021/04/07 00:17:54;;;;;;;39.70;29.77;;;;;;;10.01;66.30;98155.53;5073088;28;20039;-81
2021/04/07 00:20:23;;;;;;;35.10;27.73;;;;;;;9.73;66.51;98118.09;5074250;28;20028;-78
2021/04/07 00:22:49;;;;;;;37.75;30.70;;;;;;;10.01;66.27;98144.97;5074340;28;20093;-78
2021/04/07 00:25:16;;;;;;;34.95;27.60;;;;;;;9.99;66.13;98148.84;5074281;28;20033;-78
2021/04/07 00:27:44;;;;;;;39.28;30.55;;;;;;;9.97;65.84;98143.78;5074434;28;20047;-78
2021/04/07 00:30:11;;;;;;;37.25;28.95;;;;;;;9.86;66.22;98134.69;5074119;28;20048;-78
2021/04/07 00:32:36;;;;;;;36.80;29.70;;;;;;;9.94;66.10;98165.28;5074191;28;20342;-78
2021/04/07 00:35:04;;;;;;;35.88;29.25;;;;;;;9.92;66.12;98142.78;5074138;28;20036;-78
2021/04/07 00:37:29;;;;;;;35.35;29.38;;;;;;;9.43;66.13;98062.44;5074070;28;20438;-78
2021/04/07 00:39:55;;;;;;;33.65;27.92;;;;;;;9.88;66.11;98132.66;5073189;28;20021;-78
2021/04/07 00:42:21;;;;;;;34.47;27.92;;;;;;;9.87;66.15;98130.22;5072880;28;20028;-78
2021/04/07 00:44:46;;;;;;;38.40;30.25;;;;;;;9.59;65.83;98087.50;5074139;28;20032;-77
2021/04/07 00:47:16;;;;;;;35.15;26.67;;;;;;;9.81;66.18;98126.59;5073797;28;20055;-77
2021/04/07 00:49:42;;;;;;;34.33;27.98;;;;;;;9.49;66.38;98064.22;5076696;28;20036;-78
2021/04/07 00:52:07;;;;;;;31.55;25.15;;;;;;;9.72;66.56;98101.47;5077610;28;20453;-78
2021/04/07 00:54:33;;;;;;;34.47;27.02;;;;;;;9.81;66.10;98120.50;5077564;28;20089;-77
2021/04/07 00:56:59;;;;;;;32.13;25.27;;;;;;;9.78;66.05;98095.38;5077556;28;20063;-77
2021/04/07 00:59:25;;;;;;;33.83;24.80;;;;;;;9.79;66.01;98083.00;5077414;28;20060;-79
2021/04/07 01:01:50;;;;;;;30.92;26.27;;;;;;;9.59;66.01;98053.25;5077526;28;20025;-78
2021/04/07 01:04:18;;;;;;;32.50;25.60;;;;;;;9.75;65.95;98100.25;5076254;28;20028;-78
2021/04/07 01:06:46;;;;;;;35.35;27.80;;;;;;;9.35;66.21;98045.03;5077440;28;20029;-78
2021/04/07 01:09:11;;;;;;;32.03;25.73;;;;;;;9.53;66.16;98087.31;5077119;28;20025;-77
2021/04/07 01:11:37;;;;;;;31.95;27.05;;;;;;;9.09;66.04;98010.84;5076033;28;20059;-78
2021/04/07 01:14:03;;;;;;;32.45;26.52;;;;;;;9.74;66.32;98112.63;5077257;28;20032;-78
2021/04/07 01:16:28;;;;;;;33.47;27.65;;;;;;;9.70;66.01;98113.25;5077113;28;20039;-78
2021/04/07 01:18:54;;;;;;;31.85;27.75;;;;;;;9.53;66.16;98118.94;5077189;28;20025;-77
2021/04/07 01:21:20;;;;;;;34.55;27.35;;;;;;;9.38;65.94;98136.78;5077018;28;20051;-77
2021/04/07 01:23:47;;;;;;;35.65;26.80;;;;;;;9.59;66.21;98140.22;5077144;28;20035;-78
2021/04/07 01:26:13;;;;;;;35.92;26.90;;;;;;;9.53;65.91;98124.19;5076831;28;20024;-78
2021/04/07 01:28:39;;;;;;;33.63;26.08;;;;;;;9.49;66.10;98136.16;5076949;28;20451;-78
2021/04/07 01:31:05;;;;;;;32.03;25.85;;;;;;;9.36;66.26;98111.69;5075816;28;20324;-78
2021/04/07 01:33:30;;;;;;;33.92;24.27;;;;;;;9.50;66.40;98121.97;5075854;28;20028;-78
2021/04/07 01:35:56;;;;;;;31.30;24.92;;;;;;;9.47;66.17;98118.94;5076910;28;20020;-78
2021/04/07 01:38:22;;;;;;;32.55;25.40;;;;;;;9.46;66.39;98120.78;5076667;28;20327;-79
2021/04/07 01:40:49;;;;;;;32.97;25.33;;;;;;;9.49;66.09;98106.38;5075719;28;20035;-78
2021/04/07 01:43:17;;;;;;;31.52;25.23;;;;;;;9.40;66.38;98084.72;5076505;28;20025;-78
2021/04/07 01:45:45;;;;;;;34.40;25.90;;;;;;;9.18;66.00;98051.75;5076852;28;20048;-78
2021/04/07 01:48:12;;;;;;;32.55;24.95;;;;;;;9.45;66.20;98082.28;5076338;28;20067;-78
2021/04/07 01:50:42;;;;;;;29.52;24.55;;;;;;;8.88;66.00;97999.50;5076604;28;20031;-78
2021/04/07 01:53:12;;;;;;;31.40;24.95;;;;;;;9.43;66.42;98086.13;5075229;28;20093;-77
2021/04/07 01:55:38;;;;;;;27.55;21.95;;;;;;;9.19;66.06;98045.47;5076444;28;20028;-78
2021/04/07 01:58:04;;;;;;;25.48;20.88;;;;;;;8.99;66.27;98016.53;5076332;28;20099;-78
2021/04/07 02:00:30;;;;;;;25.15;21.52;;;;;;;9.30;66.24;98075.63;5075151;28;20024;-78
2021/04/07 02:02:55;;;;;;;27.23;21.77;;;;;;;9.02;66.20;98033.75;5076352;28;20020;-77
2021/04/07 02:05:21;;;;;;;28.10;23.05;;;;;;;9.28;65.90;98065.28;5076368;28;20308;-78
2021/04/07 02:07:46;;;;;;;24.95;20.65;;;;;;;9.20;66.20;98058.41;5075149;28;20104;-78
2021/04/07 02:10:12;;;;;;;29.70;22.50;;;;;;;9.32;66.15;98079.66;5075043;28;20028;-78
2021/04/07 02:12:38;;;;;;;27.30;23.38;;;;;;;9.24;65.94;98067.53;5076013;28;20060;-78
2021/04/07 02:15:14;;;;;;;26.85;23.15;;;;;;;9.31;65.94;98083.31;5075333;28;20051;-79
2021/04/07 02:17:40;;;;;;;30.65;24.67;;;;;;;9.32;66.22;98078.84;5076228;28;20070;-78
2021/04/07 02:20:08;;;;;;;34.97;24.55;;;;;;;8.99;66.21;98031.53;5075932;28;20068;-78
2021/04/07 02:22:34;;;;;;;27.67;23.08;;;;;;;9.31;66.04;98083.31;5075842;28;20031;-79
2021/04/07 02:24:59;;;;;;;31.02;23.45;;;;;;;8.74;66.46;97994.47;5074808;28;20115;-78
2021/04/07 02:27:25;;;;;;;35.58;25.35;;;;;;;8.91;66.14;98022.78;5075729;28;20031;-78
2021/04/07 02:29:53;;;;;;;39.28;27.52;;;;;;;9.29;65.99;98074.00;5075952;28;20024;-78
2021/04/07 02:32:20;;;;;;;38.25;29.02;;;;;;;9.20;66.32;98070.78;5074255;28;20032;-78
2021/04/07 02:34:46;;;;;;;38.05;27.35;;;;;;;9.22;66.61;98077.47;5075827;28;20025;-77
2021/04/07 02:37:13;;;;;;;43.95;29.60;;;;;;;9.22;66.55;98082.72;5075587;28;20331;-78
2021/04/07 02:39:39;;;;;;;41.17;29.75;;;;;;;9.04;66.52;98047.50;5074359;28;20025;-77
2021/04/07 02:42:06;;;;;;;41.85;29.65;;;;;;;9.20;66.48;98068.97;5075517;28;20036;-78
2021/04/07 02:44:31;;;;;;;37.40;29.98;;;;;;;9.11;66.56;98061.47;5075413;28;20028;-78
2021/04/07 02:46:57;;;;;;;40.88;28.10;;;;;;;9.16;66.28;98067.75;5074094;28;20457;-78
2021/04/07 02:49:22;;;;;;;39.35;28.00;;;;;;;9.02;66.36;98062.69;5075445;28;20033;-77
2021/04/07 02:51:50;;;;;;;39.50;26.90;;;;;;;8.84;66.54;98055.41;5075430;28;20035;-77
2021/04/07 02:54:15;;;;;;;37.75;26.35;;;;;;;8.73;66.16;98016.53;5074054;28;20405;-77
2021/04/07 02:56:41;;;;;;;37.55;24.67;;;;;;;8.69;66.70;98037.19;5073992;28;20124;-77
2021/04/07 02:59:06;;;;;;;40.40;25.83;;;;;;;8.84;66.73;98060.66;5075290;28;20052;-78
2021/04/07 03:01:31;;;;;;;40.78;28.77;;;;;;;8.79;66.97;98063.09;5075165;28;20028;-77
2021/04/07 03:03:57;;;;;;;38.00;26.33;;;;;;;8.56;66.82;98024.84;5074137;28;20351;-77
2021/04/07 03:06:22;;;;;;;37.78;26.70;;;;;;;8.77;66.55;98049.31;5073888;28;20447;-77
2021/04/07 03:08:49;;;;;;;40.58;29.38;;;;;;;8.69;66.76;98039.00;5075313;28;20056;-77
2021/04/07 03:11:15;;;;;;;37.60;28.65;;;;;;;8.83;66.85;98049.31;5073482;28;20028;-78
2021/04/07 03:13:40;;;;;;;36.90;26.13;;;;;;;8.87;66.80;98050.53;5074895;28;20351;-78
2021/04/07 03:16:05;;;;;;;30.75;23.73;;;;;;;8.75;66.82;98035.56;5073894;28;20397;-78
2021/04/07 03:18:31;;;;;;;35.65;26.48;;;;;;;8.27;66.61;97954.19;5074821;28;20035;-78
2021/04/07 03:20:57;;;;;;;39.30;29.23;;;;;;;8.51;66.15;97987.00;5075097;28;20020;-78
2021/04/07 03:23:22;;;;;;;39.45;27.80;;;;;;;8.97;66.44;98059.88;5073735;28;20392;-78
2021/04/07 03:25:48;;;;;;;43.58;31.08;;;;;;;8.94;66.80;98066.34;5074941;28;20036;-77
2021/04/07 03:28:13;;;;;;;37.17;28.83;;;;;;;8.68;66.41;98030.31;5074561;28;20090;-77
2021/04/07 03:30:51;;;;;;;35.08;28.30;;;;;;;8.55;66.22;97993.47;5075075;28;20029;-78
2021/04/07 03:33:28;;;;;;;38.85;27.98;;;;;;;8.72;66.56;98017.56;5073466;28;20032;-78
2021/04/07 03:35:54;;;;;;;42.08;29.83;;;;;;;8.58;66.36;97995.69;5073653;28;20028;-77
2021/04/07 03:38:19;;;;;;;40.63;31.17;;;;;;;9.07;66.13;98074.25;5074609;28;20332;-78
2021/04/07 03:40:46;;;;;;;38.40;29.90;;;;;;;9.08;66.37;98073.22;5074657;28;20434;-78
2021/04/07 03:43:16;;;;;;;35.15;27.05;;;;;;;8.87;66.36;98045.28;5074640;28;20058;-78
2021/04/07 03:45:43;;;;;;;36.25;28.02;;;;;;;9.01;66.48;98063.72;5074771;28;20107;-78
2021/04/07 03:48:10;;;;;;;41.90;30.15;;;;;;;9.09;66.34;98081.94;5074522;28;20053;-79
2021/04/07 03:50:36;;;;;;;46.63;33.88;;;;;;;9.00;65.89;98098.94;5074679;28;20166;-77
2021/04/07 03:53:02;;;;;;;37.88;29.95;;;;;;;8.34;66.39;97980.53;5074479;28;20029;-79
2021/04/07 03:55:28;;;;;;;39.80;30.15;;;;;;;8.53;66.09;98011.28;5074308;28;20120;-78
2021/04/07 03:57:53;;;;;;;41.60;29.10;;;;;;;8.86;65.59;98069.97;5074400;28;20029;-78
2021/04/07 04:00:19;;;;;;;34.53;28.35;;;;;;;8.68;65.40;98040.03;5074456;28;20055;-78
2021/04/07 04:02:45;;;;;;;39.15;30.30;;;;;;;8.81;65.33;98068.97;5074475;28;20042;-78
2021/04/07 04:05:10;;;;;;;37.17;28.67;;;;;;;8.94;65.61;98105.84;5074367;28;20442;-78
2021/04/07 04:07:36;;;;;;;48.40;35.97;;;;;;;8.46;65.54;98024.44;5073463;28;20056;-78
2021/04/07 04:10:02;;;;;;;45.45;31.70;;;;;;;8.47;66.03;98030.50;5073341;28;20173;-78
2021/04/07 04:12:28;;;;;;;42.25;32.10;;;;;;;8.88;65.86;98091.63;5073985;28;20100;-78
2021/04/07 04:14:54;;;;;;;44.83;32.67;;;;;;;8.91;65.89;98093.88;5074355;28;20032;-78
2021/04/07 04:17:19;;;;;;;49.47;35.42;;;;;;;8.97;66.00;98094.09;5074232;28;20028;-78
2021/04/07 04:19:44;;;;;;;42.05;30.42;;;;;;;8.81;65.91;98085.56;5074422;28;20067;-77
2021/04/07 04:22:10;;;;;;;36.38;28.83;;;;;;;8.79;65.83;98073.63;5074156;28;20362;-78
2021/04/07 04:24:35;;;;;;;48.88;36.13;;;;;;;8.99;65.65;98099.97;5076848;28;20062;-77
2021/04/07 04:27:01;;;;;;;80.10;51.42;;;;;;;9.00;66.08;98093.69;5078248;28;20108;-77
2021/04/07 04:29:26;;;;;;;100.45;58.40;;;;;;;9.00;65.45;98112.13;5077891;28;20498;-78
2021/04/07 04:31:51;;;;;;;98.88;55.83;;;;;;;9.01;66.04;98113.72;5078121;28;20024;-77
2021/04/07 04:34:17;;;;;;;66.05;41.75;;;;;;;8.99;65.67;98123.66;5078436;28;20020;-80
2021/04/07 04:36:42;;;;;;;58.10;39.72;;;;;;;8.99;65.44;98128.91;5076833;28;20048;-78
2021/04/07 04:39:08;;;;;;;60.28;40.78;;;;;;;8.55;65.88;98077.66;5077876;28;20445;-77
2021/04/07 04:41:33;;;;;;;54.35;39.03;;;;;;;8.60;66.22;98101.53;5077733;28;20032;-78
2021/04/07 04:43:58;;;;;;;38.92;33.50;;;;;;;8.13;65.65;98013.81;5077789;28;20028;-78
2021/04/07 04:46:24;;;;;;;45.40;35.70;;;;;;;8.79;66.08;98121.78;5076326;28;20052;-78
2021/04/07 04:48:49;;;;;;;50.83;37.40;;;;;;;8.90;65.71;98131.72;5077741;28;20140;-79
2021/04/07 04:51:15;;;;;;;43.95;33.10;;;;;;;8.93;65.85;98135.81;5076300;28;20036;-78
2021/04/07 04:53:40;;;;;;;44.78;34.20;;;;;;;9.00;65.34;98141.06;5076352;28;20024;-78
2021/04/07 04:56:09;;;;;;;51.25;40.95;;;;;;;8.70;65.56;98094.06;5078796;28;20405;-78
2021/04/07 04:58:34;;;;;;;51.40;43.42;;;;;;;8.95;65.46;98130.34;5077347;28;20028;-77
2021/04/07 05:00:59;;;;;;;49.72;42.33;;;;;;;8.59;65.49;98073.63;5077350;28;20488;-76
2021/04/07 05:03:26;;;;;;;47.20;40.15;;;;;;;8.88;65.31;98114.50;5077237;28;20091;-76
2021/04/07 05:05:51;;;;;;;40.60;34.97;;;;;;;8.89;65.74;98122.22;5076208;28;20036;-76
2021/04/07 05:08:17;;;;;;;38.42;34.22;;;;;;;8.79;65.71;98095.47;5075717;28;20073;-76
2021/04/07 05:10:43;;;;;;;39.38;34.22;;;;;;;9.06;65.49;98138.44;5077044;28;20040;-78
2021/04/07 05:13:09;;;;;;;32.70;27.90;;;;;;;8.55;65.78;98075.84;5076591;28;20021;-79
2021/04/07 05:15:34;;;;;;;31.50;25.25;;;;;;;8.48;65.61;98024.22;5076895;28;20032;-77
2021/04/07 05:17:59;;;;;;;33.13;27.58;;;;;;;9.12;65.76;98145.53;5077341;28;20062;-77
2021/04/07 05:20:25;;;;;;;32.05;28.00;;;;;;;9.16;65.56;98151.19;5075860;28;20048;-77
2021/04/07 05:22:50;;;;;;;32.90;25.65;;;;;;;9.20;65.34;98144.50;5076010;28;20445;-76
2021/04/07 05:25:16;;;;;;;30.58;25.77;;;;;;;8.43;65.65;98013.50;5076817;28;20446;-76
2021/04/07 05:27:41;;;;;;;32.67;26.02;;;;;;;9.23;65.76;98130.94;5077109;28;20078;-76
2021/04/07 05:30:08;;;;;;;31.70;26.33;;;;;;;8.63;65.53;98018.78;5076654;28;20450;-77
2021/04/07 05:32:34;;;;;;;27.35;21.50;;;;;;;8.65;65.43;98008.84;5076602;28;20031;-76
2021/04/07 05:34:59;;;;;;;34.22;27.80;;;;;;;8.71;65.26;97998.31;5076573;28;20033;-76
2021/04/07 05:37:25;;;;;;;37.95;31.98;;;;;;;9.09;65.84;98024.81;5076821;28;20032;-76
2021/04/07 05:39:50;;;;;;;37.50;29.58;;;;;;;9.33;65.30;98062.84;5075569;28;20078;-78
2021/04/07 05:42:15;;;;;;;44.80;37.38;;;;;;;9.57;65.04;98069.28;5072620;28;20450;-78
2021/04/07 05:44:41;;;;;;;46.10;38.08;;;;;;;9.93;65.24;98079.31;5072659;28;20031;-78
2021/04/07 05:47:06;;;;;;;44.58;37.80;;;;;;;10.22;65.54;98098.25;5064619;28;20109;-79
2021/04/07 05:49:32;;;;;;;36.83;30.05;;;;;;;10.28;64.96;98079.75;5076282;28;20423;-78
2021/04/07 05:51:57;;;;;;;41.90;33.13;;;;;;;10.60;64.66;98093.78;5075303;28;20393;-78
2021/04/07 05:54:23;;;;;;;45.20;35.78;;;;;;;10.65;65.42;98077.31;5076345;28;20054;-78
2021/04/07 05:56:49;;;;;;;45.60;35.78;;;;;;;10.12;64.94;97982.66;5076617;28;20028;-78
2021/04/07 05:59:14;;;;;;;43.75;34.67;;;;;;;10.79;65.08;98061.16;5076328;28;20358;-78
2021/04/07 06:01:40;;;;;;;35.35;29.33;;;;;;;10.85;64.65;98045.47;5091835;28;20355;-78
2021/04/07 06:04:05;;;;;;;40.53;31.30;;;;;;;11.31;64.23;98071.50;5076174;28;20028;-78
2021/04/07 06:06:31;;;;;;;37.05;29.92;;;;;;;11.61;64.41;98088.25;5075905;28;20028;-78
2021/04/07 06:08:56;;;;;;;24.15;18.30;;;;;;;11.83;63.79;98083.34;5076184;28;20036;-79
2021/04/07 06:11:21;;;;;;;15.60;12.18;;;;;;;11.93;64.08;98061.72;5075994;28;20492;-78
2021/04/07 06:13:47;;;;;;;15.77;11.70;;;;;;;12.08;63.07;98030.38;5076060;28;20418;-77
2021/04/07 06:16:14;;;;;;;15.63;10.38;;;;;;;12.49;62.46;98061.34;5073460;28;20372;-77
2021/04/07 06:18:40;;;;;;;12.23;9.32;;;;;;;12.55;61.90;98054.31;5073101;28;20122;-78
2021/04/07 06:21:05;;;;;;;16.40;8.32;;;;;;;12.60;61.77;98073.00;5075639;28;20096;-78
2021/04/07 06:23:31;;;;;;;12.70;8.65;;;;;;;12.63;61.41;98078.66;5066309;28;20035;-77
2021/04/07 06:25:56;;;;;;;17.95;12.15;;;;;;;13.02;60.73;98094.97;5075635;28;20024;-77
2021/04/07 06:28:22;;;;;;;9.80;7.00;;;;;;;13.15;60.83;98110.63;5075352;28;20043;-77
2021/04/07 06:30:48;;;;;;;12.32;7.22;;;;;;;12.71;60.56;98021.91;5075631;28;20060;-79
2021/04/07 06:33:28;;;;;;;14.07;10.35;;;;;;;13.11;59.02;98079.53;5073931;28;20050;-78
2021/04/07 06:36:08;;;;;;;10.23;7.25;;;;;;;13.26;59.42;98056.06;5072652;28;20537;-78
2021/04/07 06:38:35;;;;;;;15.82;8.68;;;;;;;13.58;59.11;98110.34;5071298;28;20040;-78
2021/04/07 06:41:02;;;;;;;10.70;6.53;;;;;;;13.40;58.36;98107.03;5074881;28;20067;-77
2021/04/07 06:43:30;;;;;;;6.63;5.32;;;;;;;13.44;58.21;98089.63;5065161;28;20439;-77
2021/04/07 06:45:56;;;;;;;9.50;6.35;;;;;;;13.42;57.66;98091.69;5074740;28;20135;-78
2021/04/07 06:48:21;;;;;;;20.05;9.43;;;;;;;13.55;56.84;98110.81;5074222;28;20553;-77
2021/04/07 06:50:50;;;;;;;12.23;5.95;;;;;;;13.66;56.41;98133.06;5074646;28;20036;-77
2021/04/07 06:53:17;;;;;;;10.55;6.20;;;;;;;13.77;56.55;98144.69;5074392;28;20032;-77
2021/04/07 06:55:43;;;;;;;17.95;11.65;;;;;;;13.76;57.38;98153.69;5075087;28;20033;-78
2021/04/07 06:58:10;;;;;;;20.10;14.48;;;;;;;13.92;58.29;98169.72;5073411;28;20450;-77
2021/04/07 07:00:37;;;;;;;18.60;15.32;;;;;;;13.74;58.89;98132.69;5073009;28;20029;-77
2021/04/07 07:03:06;;;;;;;17.65;14.35;;;;;;;13.49;59.27;98081.78;5066952;28;20021;-77
2021/04/07 07:05:35;;;;;;;20.48;15.40;;;;;;;14.04;59.47;98175.00;5072178;28;20049;-78
2021/04/07 07:08:05;;;;;;;18.73;14.45;;;;;;;13.49;58.83;98100.31;5068148;28;20028;-77
2021/04/07 07:11:03;;;;;;;24.00;16.05;;;;;;;13.97;59.14;98158.41;5063550;28;20029;-77
2021/04/07 07:13:28;;;;;;;20.42;16.63;;;;;;;13.27;59.74;98065.63;5049494;28;20040;-77
2021/04/07 07:15:54;;;;;;;22.75;17.17;;;;;;;13.36;59.94;98114.59;5072709;28;20029;-77
2021/04/07 07:18:27;;;;;;;23.48;18.20;;;;;;;13.51;60.28;98159.25;5066758;28;20033;-77
2021/04/07 07:20:53;;;;;;;26.45;19.90;;;;;;;13.47;59.86;98153.59;5071543;28;20113;-78
2021/04/07 07:23:25;;;;;;;26.23;20.50;;;;;;;13.74;60.66;98196.38;5070530;28;20028;-78
2021/04/07 07:26:01;;;;;;;20.55;17.10;;;;;;;13.72;60.25;98200.28;5070645;28;20044;-79
2021/04/07 07:28:38;;;;;;;20.73;17.88;;;;;;;13.71;59.99;98201.31;5087570;28;20450;-77
2021/04/07 07:31:03;;;;;;;21.58;17.15;;;;;;;13.64;59.94;98189.00;5083419;28;20035;-78
2021/04/07 07:33:30;;;;;;;21.25;18.48;;;;;;;13.75;59.83;98205.13;5079369;28;20339;-78
2021/04/07 07:36:06;;;;;;;24.75;18.38;;;;;;;13.74;59.76;98209.63;5061448;28;20036;-77
2021/04/07 07:38:35;;;;;;;25.08;19.33;;;;;;;13.67;60.08;98200.97;5040763;28;20033;-80
2021/04/07 07:41:06;;;;;;;23.75;20.88;;;;;;;13.69;60.11;98206.84;5070334;28;20028;-77
2021/04/07 07:43:37;;;;;;;23.30;18.85;;;;;;;13.61;60.49;98213.31;5071562;28;20059;-78
2021/04/07 07:46:14;;;;;;;24.65;19.27;;;;;;;13.75;60.50;98221.84;5065836;28;20025;-78
2021/04/07 07:48:41;;;;;;;23.83;20.30;;;;;;;13.76;60.60;98235.94;5067183;28;20052;-80
2021/04/07 07:51:17;;;;;;;30.33;21.35;;;;;;;13.85;61.02;98242.50;5057822;28;20359;-78
2021/04/07 07:53:45;;;;;;;30.33;23.20;;;;;;;13.85;60.86;98251.28;5076170;28;20039;-81
2021/04/07 07:56:14;;;;;;;22.67;19.42;;;;;;;13.49;61.23;98198.44;5075566;28;20089;-78
2021/04/07 07:58:44;;;;;;;29.15;23.23;;;;;;;13.75;61.07;98235.13;5078568;28;20426;-78
2021/04/07 08:01:11;;;;;;;26.10;21.13;;;;;;;13.91;61.07;98260.16;5078687;28;20036;-77
2021/04/07 08:03:37;;;;;;;24.38;20.10;;;;;;;13.83;60.92;98234.78;5091696;28;20028;-77
2021/04/07 08:06:03;;;;;;;25.08;20.50;;;;;;;13.88;60.77;98223.47;5091910;28;20034;-77
2021/04/07 08:08:29;;;;;;;31.95;24.08;;;;;;;13.60;60.88;98190.50;5068202;28;20056;-80
2021/04/07 08:10:55;;;;;;;24.48;20.77;;;;;;;13.69;60.96;98220.13;5092159;28;20128;-75
2021/04/07 08:13:21;;;;;;;30.00;23.60;;;;;;;14.14;60.95;98292.03;5098171;28;20031;-79
2021/04/07 08:15:48;;;;;;;31.65;27.60;;;;;;;13.92;61.00;98267.88;5098652;28;20031;-78
2021/04/07 08:18:14;;;;;;;33.75;26.63;;;;;;;14.26;61.13;98295.47;5098392;28;20039;-77
2021/04/07 08:20:40;;;;;;;33.20;25.35;;;;;;;14.25;60.59;98299.19;5079933;28;20024;-77
2021/04/07 08:23:09;;;;;;;30.08;24.90;;;;;;;14.38;60.56;98299.97;5098495;28;20330;-76
2021/04/07 08:25:36;;;;;;;29.95;25.30;;;;;;;14.39;60.41;98297.09;5098131;28;20107;-77
2021/04/07 08:28:03;;;;;;;33.45;25.98;;;;;;;14.30;60.09;98259.47;5098296;28;20039;-76
2021/04/07 08:30:29;;;;;;;29.23;22.77;;;;;;;14.29;59.99;98241.91;5074348;28;20346;-76
2021/04/07 08:32:56;;;;;;;27.38;22.08;;;;;;;14.50;59.35;98259.09;5097486;28;20032;-77
2021/04/07 08:35:23;;;;;;;27.90;19.92;;;;;;;14.90;59.02;98299.00;5079946;28;20050;-76
2021/04/07 08:37:57;;;;;;;27.02;23.95;;;;;;;15.01;59.04;98299.19;5079223;28;20036;-75
2021/04/07 08:40:23;;;;;;;31.42;26.40;;;;;;;14.83;59.25;98258.44;5097264;28;20036;-77
2021/04/07 08:42:48;;;;;;;32.33;25.95;;;;;;;15.25;59.46;98308.69;5092832;28;20058;-76
2021/04/07 08:45:14;;;;;;;27.33;24.48;;;;;;;15.21;59.28;98291.59;5096231;28;20024;-77
2021/04/07 08:48:06;;;;;;;29.55;25.33;;;;;;;15.54;59.44;98318.25;5095925;28;20389;-77
2021/04/07 08:50:31;;;;;;;26.85;23.95;;;;;;;15.38;58.80;98295.09;5066208;28;20426;-76
2021/04/07 08:52:57;;;;;;;29.75;25.33;;;;;;;15.70;58.47;98351.31;5094720;28;20097;-76
2021/04/07 08:55:27;;;;;;;29.90;24.90;;;;;;;14.99;57.71;98232.97;5074806;28;20034;-75
2021/04/07 08:58:02;;;;;;;31.17;26.65;;;;;;;15.52;56.99;98304.38;5097228;28;20084;-78
2021/04/07 09:00:33;;;;;;;41.40;32.67;;;;;;;15.20;57.68;98290.78;5094994;28;20376;-78
2021/04/07 09:03:11;;;;;;;48.23;39.87;;;;;;;15.68;57.44;98337.44;5097486;28;20149;-79
2021/04/07 09:05:39;;;;;;;40.50;34.10;;;;;;;15.79;57.16;98341.88;5059517;28;20100;-79
2021/04/07 09:08:06;;;;;;;44.50;36.95;;;;;;;15.14;57.06;98227.13;5081635;28;20396;-80
2021/04/07 09:10:41;;;;;;;43.45;35.72;;;;;;;15.97;56.60;98338.19;5095544;28;20055;-79
2021/04/07 09:13:15;;;;;;;40.35;34.55;;;;;;;15.93;57.28;98339.72;5096229;28;20040;-81
2021/04/07 09:15:51;;;;;;;42.85;36.55;;;;;;;16.07;56.22;98342.84;5088827;28;20352;-80
2021/04/07 09:18:30;;;;;;;41.95;34.75;;;;;;;16.21;55.71;98355.59;5096843;28;20465;-80
2021/04/07 09:20:55;;;;;;;38.22;32.08;;;;;;;16.25;55.70;98339.13;5089379;28;20028;-80
2021/04/07 09:23:25;;;;;;;37.03;31.50;;;;;;;16.51;55.13;98357.94;5096378;28;20020;-80
2021/04/07 09:26:13;;;;;;;37.63;32.05;;;;;;;16.13;54.58;98294.75;5096845;28;20028;-80
2021/04/07 09:28:41;;;;;;;37.75;32.10;;;;;;;16.80;54.47;98366.59;5096566;28;20435;-80
2021/04/07 09:31:10;;;;;;;33.05;29.15;;;;;;;17.02;53.31;98355.13;5078839;28;20107;-79
2021/04/07 09:33:37;;;;;;;37.58;31.25;;;;;;;17.03;52.42;98360.22;5096708;28;20027;-79
2021/04/07 09:36:04;;;;;;;38.95;31.75;;;;;;;16.85;52.12;98312.56;5097007;28;20020;-79
2021/04/07 09:38:34;;;;;;;38.17;33.33;;;;;;;17.18;51.72;98343.63;5096604;28;20024;-78
2021/04/07 09:41:06;;;;;;;40.83;33.58;;;;;;;17.51;51.16;98360.50;5096917;28;20032;-78
2021/04/07 09:43:32;;;;;;;38.88;30.83;;;;;;;17.37;50.68;98346.75;5096546;28;20027;-79
2021/04/07 09:45:58;;;;;;;35.88;28.70;;;;;;;17.42;50.89;98368.16;5096480;28;20443;-78
2021/04/07 09:48:52;;;;;;;31.75;28.35;;;;;;;16.83;49.89;98307.47;5078131;28;20070;-79
2021/04/07 09:51:30;;;;;;;30.73;25.83;;;;;;;16.89;51.33;98374.19;5060450;28;20040;-81
2021/04/07 09:54:21;;;;;;;28.98;24.30;;;;;;;16.53;51.65;98390.47;5070478;28;20339;-76
2021/04/07 09:56:55;;;;;;;26.02;23.13;;;;;;;16.09;52.64;98349.53;5075917;28;20031;-78
2021/04/07 09:59:47;;;;;;;25.50;21.98;;;;;;;16.16;52.20;98376.00;5076618;28;20025;-80
2021/04/07 10:02:14;;;;;;;24.50;21.80;;;;;;;15.95;52.45;98372.22;5061474;28;20043;-80
2021/04/07 10:04:42;;;;;;;26.27;20.30;;;;;;;15.82;52.53;98396.47;5068471;28;20028;-80
2021/04/07 10:07:15;;;;;;;21.45;16.33;;;;;;;15.84;50.75;98351.81;5074882;28;20024;-79
2021/04/07 10:09:46;;;;;;;19.05;15.75;;;;;;;16.05;51.07;98409.66;5070776;28;20048;-80
2021/04/07 10:12:12;;;;;;;16.23;12.82;;;;;;;16.36;49.76;98362.22;5061914;28;20024;-79
2021/04/07 10:14:38;;;;;;;16.95;11.50;;;;;;;17.04;48.63;98409.84;5074477;28;20111;-80
2021/04/07 10:17:15;;;;;;;14.23;11.55;;;;;;;16.81;47.60;98343.41;5075846;28;20020;-78
2021/04/07 10:19:42;;;;;;;15.90;11.95;;;;;;;17.57;46.88;98408.34;5066347;28;20111;-80
2021/04/07 10:22:14;;;;;;;16.85;13.05;;;;;;;17.85;46.26;98398.53;5058492;28;20435;-80
2021/04/07 10:24:42;;;;;;;14.23;11.73;;;;;;;17.84;45.98;98407.59;5072168;28;20032;-79
2021/04/07 10:27:07;;;;;;;12.70;11.00;;;;;;;17.67;45.96;98403.16;5061676;28;20174;-79
2021/04/07 10:29:34;;;;;;;14.93;11.88;;;;;;;17.52;45.92;98405.63;5075162;28;20028;-80
2021/04/07 10:31:59;;;;;;;12.32;10.25;;;;;;;17.66;45.96;98406.88;5075555;28;20024;-79
2021/04/07 10:34:33;;;;;;;13.68;11.40;;;;;;;17.09;44.28;98305.09;5074215;28;20024;-80
2021/04/07 10:36:59;;;;;;;14.05;11.32;;;;;;;17.51;45.44;98413.88;5057106;28;20029;-81
2021/04/07 10:39:25;;;;;;;13.38;11.13;;;;;;;16.85;45.50;98392.53;5075332;28;20161;-82
2021/04/07 10:41:52;;;;;;;12.35;10.88;;;;;;;16.71;46.00;98407.25;5075175;28;20479;-78
2021/04/07 10:44:29;;;;;;;11.85;10.63;;;;;;;16.81;46.12;98415.41;5074747;28;20021;-79
2021/04/07 10:46:54;;;;;;;12.68;9.63;;;;;;;16.68;45.97;98405.09;5074656;28;20486;-79
2021/04/07 10:49:21;;;;;;;11.27;9.23;;;;;;;17.41;44.71;98406.56;5074388;28;20029;-78
2021/04/07 10:52:01;;;;;;;10.30;9.15;;;;;;;18.04;43.60;98432.63;5060602;28;20324;-77
2021/04/07 10:54:27;;;;;;;11.73;7.38;;;;;;;17.97;42.54;98388.50;5073272;28;20093;-79
2021/04/07 10:57:06;;;;;;;7.60;6.57;;;;;;;18.21;39.55;98426.38;5075126;28;20393;-79
2021/04/07 10:59:33;;;;;;;7.35;6.03;;;;;;;18.08;41.06;98380.31;5060520;28;20037;-82
2021/04/07 11:01:59;;;;;;;8.77;6.38;;;;;;;18.41;40.68;98454.06;5064724;28;20039;-81
2021/04/07 11:04:34;;;;;;;9.50;6.30;;;;;;;17.55;39.94;98318.91;5072396;28;20029;-80
2021/04/07 11:06:59;;;;;;;7.38;5.13;;;;;;;18.41;40.31;98400.59;5074466;28;20450;-77
2021/04/07 11:09:33;;;;;;;7.40;5.85;;;;;;;18.84;39.73;98428.22;5060958;28;20021;-81
2021/04/07 11:12:00;;;;;;;9.90;5.85;;;;;;;19.16;39.22;98481.63;5073254;28;20350;-80
2021/04/07 11:14:25;;;;;;;8.90;5.57;;;;;;;18.94;38.66;98470.25;5070492;28;20454;-78
2021/04/07 11:17:03;;;;;;;7.60;4.32;;;;;;;19.05;37.27;98469.25;5073910;28;20020;-78
2021/04/07 11:19:36;;;;;;;6.13;4.28;;;;;;;18.30;37.40;98393.59;5072543;28;20032;-79
2021/04/07 11:22:03;;;;;;;6.03;4.38;;;;;;;18.90;38.21;98448.56;5072138;28;20040;-78
2021/04/07 11:24:29;;;;;;;6.35;4.82;;;;;;;18.85;37.94;98404.94;5071876;28;20036;-79